Time;durP1;ratioP1;P1;durP2;ratioP2;P2;SDS_P1;SDS_P2;PMS_P1;PMS_P2;Temp;Humidity;BMP_temperature;BMP_pressure;BME280_temperature;BME280_humidity;BME280_pressure;Samples;Min_cycle;Max_cycle;Signal;HPM_P1;HPM_P2
2021/01/14 00:00:23;;;;;;;3.03;2.73;;;6.10;99.90;;;;;;5053271;28;20232;-58
2021/01/14 00:02:50;;;;;;;2.83;2.53;;;6.10;99.90;;;;;;5053831;28;20217;-58
2021/01/14 00:05:16;;;;;;;2.30;2.10;;;6.10;99.90;;;;;;5053195;28;20206;-58
2021/01/14 00:07:42;;;;;;;2.20;1.90;;;6.00;99.90;;;;;;5053027;28;20590;-58
2021/01/14 00:10:11;;;;;;;2.63;2.10;;;6.00;99.90;;;;;;5052923;28;20225;-58
2021/01/14 00:12:38;;;;;;;3.17;2.37;;;5.90;99.90;;;;;;5052823;28;20681;-58
2021/01/14 00:15:06;;;;;;;2.30;2.10;;;5.80;99.90;;;;;;5052710;28;20681;-59
2021/01/14 00:17:32;;;;;;;2.27;2.03;;;5.90;99.90;;;;;;5052883;28;20674;-59
2021/01/14 00:19:58;;;;;;;2.20;2.00;;;6.00;99.90;;;;;;5052444;28;20236;-58
2021/01/14 00:22:25;;;;;;;3.20;2.13;;;6.00;99.90;;;;;;5052702;28;20239;-58
2021/01/14 00:24:51;;;;;;;2.20;2.00;;;5.90;99.90;;;;;;5052586;28;20209;-58
2021/01/14 00:27:18;;;;;;;2.17;1.93;;;5.80;99.90;;;;;;5052825;28;20212;-58
2021/01/14 00:29:44;;;;;;;2.53;2.13;;;5.70;99.90;;;;;;5052503;28;20673;-58
2021/01/14 00:32:10;;;;;;;2.90;2.20;;;5.60;99.90;;;;;;5052639;28;20206;-58
2021/01/14 00:34:38;;;;;;;3.13;1.97;;;5.60;99.90;;;;;;5052617;28;20209;-58
2021/01/14 00:39:52;;;;;;;2.57;2.13;;;5.60;99.90;;;;;;5052419;28;20311;-58
2021/01/14 00:42:19;;;;;;;2.73;2.20;;;5.50;99.90;;;;;;5052656;28;20201;-58
2021/01/14 00:44:46;;;;;;;2.97;2.43;;;5.50;99.90;;;;;;5052034;28;20696;-58
2021/01/14 00:47:12;;;;;;;3.70;2.53;;;5.60;99.90;;;;;;5052473;28;20642;-58
2021/01/14 00:49:38;;;;;;;3.70;2.20;;;5.70;99.90;;;;;;5052269;28;20201;-58
2021/01/14 00:52:04;;;;;;;2.50;2.20;;;5.70;99.90;;;;;;5052409;28;20224;-58
2021/01/14 00:54:30;;;;;;;3.20;2.47;;;5.70;99.90;;;;;;5052280;28;20205;-58
2021/01/14 00:56:57;;;;;;;2.70;2.50;;;5.70;99.90;;;;;;5052283;28;20232;-58
2021/01/14 00:59:24;;;;;;;2.63;2.30;;;5.80;99.90;;;;;;5051935;28;20275;-58
2021/01/14 01:01:50;;;;;;;2.83;2.50;;;5.80;99.90;;;;;;5051883;28;20221;-58
2021/01/14 01:04:16;;;;;;;4.27;3.40;;;5.80;99.90;;;;;;5051860;28;20205;-58
2021/01/14 01:06:42;;;;;;;3.53;2.70;;;5.80;99.90;;;;;;5051741;28;20222;-58
2021/01/14 01:09:10;;;;;;;2.90;2.60;;;5.80;99.90;;;;;;5051834;28;20251;-58
2021/01/14 01:11:37;;;;;;;3.97;2.60;;;5.90;99.90;;;;;;5051797;28;20229;-58
2021/01/14 01:14:04;;;;;;;4.00;2.67;;;5.80;99.90;;;;;;5051686;28;20597;-58
2021/01/14 01:16:31;;;;;;;3.37;2.83;;;5.80;99.90;;;;;;5051676;28;20271;-58
2021/01/14 01:18:57;;;;;;;3.47;2.70;;;5.90;99.90;;;;;;5051341;28;20221;-58
2021/01/14 01:21:24;;;;;;;3.53;3.10;;;5.80;99.90;;;;;;5051322;28;20234;-58
2021/01/14 01:23:50;;;;;;;3.60;3.20;;;5.80;99.90;;;;;;5051664;28;20208;-58
2021/01/14 01:26:17;;;;;;;3.60;2.50;;;5.80;99.90;;;;;;5051591;28;20202;-59
2021/01/14 01:28:44;;;;;;;3.80;2.90;;;5.80;99.90;;;;;;5051543;28;20229;-58
2021/01/14 01:31:12;;;;;;;3.70;3.13;;;5.80;99.90;;;;;;5051496;28;20226;-58
2021/01/14 01:33:39;;;;;;;5.27;3.17;;;5.80;99.90;;;;;;5051220;28;20205;-59
2021/01/14 01:36:06;;;;;;;3.43;3.13;;;5.90;99.90;;;;;;5051281;28;20252;-58
2021/01/14 01:38:33;;;;;;;5.10;3.30;;;5.90;99.90;;;;;;5051378;28;20582;-58
2021/01/14 01:41:00;;;;;;;3.97;3.30;;;5.90;99.90;;;;;;5051351;28;20221;-58
2021/01/14 01:43:27;;;;;;;4.30;3.30;;;6.00;99.90;;;;;;5051374;28;20206;-58
2021/01/14 01:45:54;;;;;;;3.70;3.20;;;6.00;99.90;;;;;;5051259;28;20255;-58
2021/01/14 01:48:22;;;;;;;6.57;3.77;;;6.00;99.90;;;;;;5051579;28;20267;-58
2021/01/14 01:50:51;;;;;;;6.83;3.53;;;6.00;99.90;;;;;;5051113;28;20721;-59
2021/01/14 01:53:17;;;;;;;4.50;3.47;;;6.00;99.90;;;;;;5051332;28;20210;-59
2021/01/14 01:55:44;;;;;;;4.90;3.40;;;6.00;99.90;;;;;;5050611;28;20206;-58
2021/01/14 01:58:11;;;;;;;9.10;5.00;;;6.00;99.90;;;;;;5051125;28;20205;-59
2021/01/14 02:00:38;;;;;;;5.20;3.73;;;6.10;99.90;;;;;;5051130;28;20234;-59
2021/01/14 02:03:05;;;;;;;3.80;3.27;;;6.10;99.90;;;;;;5051303;28;20217;-58
2021/01/14 02:05:31;;;;;;;3.43;3.10;;;6.10;99.90;;;;;;5051031;28;20213;-58
2021/01/14 02:08:07;;;;;;;3.73;3.33;;;6.20;99.90;;;;;;5050904;28;20696;-58
2021/01/14 02:10:39;;;;;;;4.43;3.20;;;6.20;99.90;;;;;;5050890;28;20280;-59
2021/01/14 02:13:11;;;;;;;4.20;3.40;;;6.10;99.90;;;;;;5050762;28;20209;-58
2021/01/14 02:15:39;;;;;;;4.87;4.10;;;6.10;99.90;;;;;;5050875;28;20684;-59
2021/01/14 02:18:07;;;;;;;4.93;3.90;;;6.10;99.90;;;;;;5050774;28;20301;-58
2021/01/14 02:20:34;;;;;;;5.67;3.93;;;6.10;99.90;;;;;;5050525;28;20351;-59
2021/01/14 02:23:08;;;;;;;4.63;3.33;;;6.10;99.90;;;;;;5050849;28;20209;-58
2021/01/14 02:25:46;;;;;;;4.40;3.40;;;6.10;99.90;;;;;;5051025;28;20404;-58
2021/01/14 02:28:13;;;;;;;4.90;3.43;;;6.10;99.90;;;;;;5050826;28;20212;-59
2021/01/14 02:30:40;;;;;;;4.33;3.60;;;6.10;99.90;;;;;;5050759;28;20237;-59
2021/01/14 02:33:06;;;;;;;4.30;3.33;;;6.10;99.90;;;;;;5050744;28;20212;-59
2021/01/14 02:35:32;;;;;;;4.97;3.93;;;6.10;99.90;;;;;;5050464;28;20681;-59
2021/01/14 02:37:58;;;;;;;5.10;3.50;;;6.10;99.90;;;;;;5050373;28;20257;-59
2021/01/14 02:40:24;;;;;;;5.13;3.70;;;6.00;99.90;;;;;;5050297;28;20230;-59
2021/01/14 02:42:51;;;;;;;4.67;3.83;;;6.00;99.90;;;;;;5050808;28;20206;-58
2021/01/14 02:45:17;;;;;;;4.03;3.60;;;6.10;99.90;;;;;;5050832;28;20209;-59
2021/01/14 02:48:08;;;;;;;5.93;3.53;;;6.10;99.90;;;;;;5050545;28;20213;-58
2021/01/14 02:50:38;;;;;;;4.10;3.10;;;6.10;99.90;;;;;;5050312;28;20279;-59
2021/01/14 02:53:04;;;;;;;6.47;3.97;;;6.10;99.90;;;;;;5050690;28;20209;-58
2021/01/14 02:55:31;;;;;;;5.53;4.03;;;6.20;99.90;;;;;;5050533;28;20279;-59
2021/01/14 02:57:58;;;;;;;4.10;3.43;;;6.20;99.90;;;;;;5050336;28;20678;-58
2021/01/14 03:00:25;;;;;;;5.33;4.07;;;6.20;99.90;;;;;;5050374;28;20240;-58
2021/01/14 03:02:51;;;;;;;4.97;4.07;;;6.10;99.90;;;;;;5050544;28;20235;-58
2021/01/14 03:05:17;;;;;;;4.37;3.57;;;6.10;99.90;;;;;;5050186;28;20206;-59
2021/01/14 03:07:43;;;;;;;4.57;3.80;;;6.00;99.90;;;;;;5051719;28;20213;-58
2021/01/14 03:10:10;;;;;;;4.17;3.30;;;5.90;99.90;;;;;;5054445;28;20221;-59
2021/01/14 03:12:36;;;;;;;4.37;3.50;;;5.90;99.90;;;;;;5054496;28;20232;-59
2021/01/14 03:15:04;;;;;;;4.80;3.60;;;5.90;99.90;;;;;;5054383;28;20233;-59
2021/01/14 03:17:35;;;;;;;4.67;3.60;;;5.80;99.90;;;;;;5054139;28;20209;-59
2021/01/14 03:20:01;;;;;;;4.87;3.70;;;5.80;99.90;;;;;;5054350;28;20698;-57
2021/01/14 03:22:27;;;;;;;5.40;3.83;;;5.90;99.90;;;;;;5054135;28;20213;-58
2021/01/14 03:24:54;;;;;;;6.83;3.77;;;5.90;99.90;;;;;;5053791;28;20673;-58
2021/01/14 03:27:20;;;;;;;5.20;4.00;;;5.90;99.90;;;;;;5053969;28;20740;-58
2021/01/14 03:29:46;;;;;;;5.03;3.23;;;6.00;99.90;;;;;;5053658;28;20610;-58
2021/01/14 03:32:13;;;;;;;4.87;3.80;;;6.00;99.90;;;;;;5053776;28;20206;-58
2021/01/14 03:34:39;;;;;;;3.73;3.20;;;6.00;99.90;;;;;;5053823;28;20589;-57
2021/01/14 03:37:06;;;;;;;4.40;3.23;;;5.90;99.90;;;;;;5053935;28;20624;-57
2021/01/14 03:39:32;;;;;;;4.13;3.47;;;5.90;99.90;;;;;;5053638;28;20222;-58
2021/01/14 03:41:59;;;;;;;4.13;3.27;;;5.80;99.90;;;;;;5053992;28;20262;-58
2021/01/14 03:44:25;;;;;;;4.43;3.37;;;5.80;99.90;;;;;;5053631;28;20245;-58
2021/01/14 03:46:52;;;;;;;5.00;3.03;;;5.90;99.90;;;;;;5053465;28;20206;-58
2021/01/14 03:49:19;;;;;;;4.20;2.93;;;5.80;99.90;;;;;;5053440;28;20197;-57
2021/01/14 03:51:48;;;;;;;3.13;2.83;;;5.80;99.90;;;;;;5053523;28;20229;-58
2021/01/14 03:54:14;;;;;;;3.97;3.00;;;5.80;99.90;;;;;;5053396;28;20247;-57
2021/01/14 03:56:42;;;;;;;3.17;2.87;;;5.70;99.90;;;;;;5053383;28;20216;-58
2021/01/14 03:59:08;;;;;;;3.53;2.57;;;5.70;99.90;;;;;;5053129;28;20608;-58
2021/01/14 04:01:35;;;;;;;3.63;2.47;;;5.70;99.90;;;;;;5053019;28;20717;-57
2021/01/14 04:04:01;;;;;;;3.83;2.40;;;5.70;99.90;;;;;;5053096;28;20584;-57
2021/01/14 04:06:34;;;;;;;3.07;2.50;;;5.70;99.90;;;;;;5053349;28;20202;-58
2021/01/14 04:09:01;;;;;;;3.43;2.60;;;5.60;99.90;;;;;;5053363;28;20220;-58
2021/01/14 04:11:29;;;;;;;3.37;2.73;;;5.50;99.90;;;;;;5053028;28;20221;-57
2021/01/14 04:13:55;;;;;;;2.93;2.47;;;5.50;99.90;;;;;;5052805;28;20681;-58
2021/01/14 04:16:21;;;;;;;3.40;2.33;;;5.40;99.90;;;;;;5053168;28;20213;-57
2021/01/14 04:18:48;;;;;;;3.33;2.50;;;5.30;99.90;;;;;;5052575;28;20208;-57
2021/01/14 04:21:14;;;;;;;2.73;2.37;;;5.20;99.90;;;;;;5052612;28;20237;-57
2021/01/14 04:23:43;;;;;;;2.70;2.40;;;5.20;99.90;;;;;;5052924;28;20447;-58
2021/01/14 04:26:09;;;;;;;3.13;2.70;;;5.10;99.90;;;;;;5052760;28;20221;-58
2021/01/14 04:28:37;;;;;;;3.97;3.20;;;5.20;99.90;;;;;;5052786;28;20206;-57
2021/01/14 04:31:04;;;;;;;3.73;2.40;;;5.10;99.90;;;;;;5052921;28;20283;-57
2021/01/14 04:33:30;;;;;;;3.73;2.50;;;5.10;99.90;;;;;;5052674;28;20284;-58
2021/01/14 04:35:58;;;;;;;3.50;2.60;;;5.00;99.90;;;;;;5052676;28;20259;-58
2021/01/14 04:38:26;;;;;;;3.30;2.67;;;5.00;99.90;;;;;;5052676;28;20205;-58
2021/01/14 04:40:58;;;;;;;2.80;2.47;;;4.90;99.90;;;;;;5052213;28;20225;-58
2021/01/14 04:43:25;;;;;;;3.40;2.60;;;5.00;99.90;;;;;;5052409;28;20202;-58
2021/01/14 04:45:54;;;;;;;3.80;2.80;;;5.00;99.90;;;;;;5052864;28;20205;-59
2021/01/14 04:48:22;;;;;;;4.37;2.80;;;5.10;99.90;;;;;;5052689;28;20244;-58
2021/01/14 04:50:49;;;;;;;4.40;2.60;;;5.20;99.90;;;;;;5052263;28;20285;-58
2021/01/14 04:53:19;;;;;;;3.50;2.63;;;5.10;99.90;;;;;;5052292;28;20240;-59
2021/01/14 04:55:47;;;;;;;4.33;2.47;;;5.10;99.90;;;;;;5051883;28;20210;-58
2021/01/14 04:58:18;;;;;;;4.33;2.70;;;5.10;99.90;;;;;;5051944;28;20202;-59
2021/01/14 05:00:48;;;;;;;5.83;3.00;;;5.10;99.90;;;;;;5051981;28;20233;-59
2021/01/14 05:03:20;;;;;;;4.77;2.77;;;5.10;99.90;;;;;;5052116;28;20605;-58
2021/01/14 05:05:47;;;;;;;3.83;2.40;;;5.10;99.90;;;;;;5051967;28;20233;-58
2021/01/14 05:08:15;;;;;;;3.20;2.73;;;5.00;99.90;;;;;;5051657;28;20697;-58
2021/01/14 05:10:43;;;;;;;4.07;2.87;;;5.10;99.90;;;;;;5051982;28;20313;-59
2021/01/14 05:13:09;;;;;;;4.80;3.57;;;5.00;99.90;;;;;;5051905;28;20213;-58
2021/01/14 05:15:38;;;;;;;3.20;2.60;;;5.10;99.90;;;;;;5051729;28;20209;-58
2021/01/14 05:18:04;;;;;;;4.47;2.90;;;5.00;99.90;;;;;;5052713;28;20211;-58
2021/01/14 05:20:30;;;;;;;3.40;3.10;;;5.00;99.90;;;;;;5051669;28;20698;-59
2021/01/14 05:22:59;;;;;;;3.73;3.00;;;4.90;99.90;;;;;;5051795;28;20674;-57
2021/01/14 05:25:25;;;;;;;2.93;2.70;;;5.00;99.90;;;;;;5051896;28;20217;-58
2021/01/14 05:27:52;;;;;;;4.60;3.90;;;4.90;99.90;;;;;;5052171;28;20648;-58
2021/01/14 05:30:19;;;;;;;4.33;3.13;;;4.90;99.90;;;;;;5051300;28;20280;-59
2021/01/14 05:32:46;;;;;;;5.03;3.40;;;4.90;99.90;;;;;;5050831;28;20677;-57
2021/01/14 05:35:15;;;;;;;4.20;3.33;;;4.90;99.90;;;;;;5051354;28;20206;-59
2021/01/14 05:37:43;;;;;;;3.27;2.63;;;4.90;99.90;;;;;;5051513;28;20583;-58
2021/01/14 05:40:11;;;;;;;4.60;3.33;;;4.70;99.90;;;;;;5051540;28;20226;-59
2021/01/14 05:42:38;;;;;;;4.17;3.13;;;4.60;99.90;;;;;;5051381;28;20205;-58
2021/01/14 05:45:06;;;;;;;4.30;3.47;;;4.60;99.90;;;;;;5051453;28;20582;-58
2021/01/14 05:47:32;;;;;;;5.10;3.30;;;4.70;99.90;;;;;;5051373;28;20209;-56
2021/01/14 05:50:01;;;;;;;5.73;3.90;;;4.70;99.90;;;;;;5051074;28;20266;-57
2021/01/14 05:52:29;;;;;;;3.23;2.93;;;4.60;99.90;;;;;;5051376;28;20351;-56
2021/01/14 05:55:06;;;;;;;4.63;3.17;;;4.60;99.90;;;;;;5051136;28;20209;-56
2021/01/14 05:57:34;;;;;;;5.27;3.43;;;4.60;99.90;;;;;;5051105;28;20205;-57
2021/01/14 06:00:07;;;;;;;3.37;3.07;;;4.60;99.90;;;;;;5050836;28;20236;-56
2021/01/14 06:02:33;;;;;;;5.53;3.23;;;4.50;99.90;;;;;;5051329;28;20213;-56
2021/01/14 06:05:00;;;;;;;4.40;3.60;;;4.60;99.90;;;;;;5051027;28;20210;-57
2021/01/14 06:07:38;;;;;;;4.30;3.40;;;4.60;99.90;;;;;;5050731;28;20676;-57
2021/01/14 06:10:05;;;;;;;5.03;3.23;;;4.60;99.90;;;;;;5050801;28;20257;-58
2021/01/14 06:12:31;;;;;;;5.13;3.80;;;4.60;99.90;;;;;;5050994;28;20209;-57
2021/01/14 06:14:58;;;;;;;4.20;3.37;;;4.60;99.90;;;;;;5050477;28;20213;-57
2021/01/14 06:17:33;;;;;;;5.10;3.57;;;4.60;99.90;;;;;;5050829;28;20677;-58
2021/01/14 06:20:07;;;;;;;5.10;3.37;;;4.60;99.90;;;;;;5050551;28;20316;-58
2021/01/14 06:22:36;;;;;;;6.20;3.73;;;4.60;99.90;;;;;;5050563;28;20642;-57
2021/01/14 06:25:05;;;;;;;4.03;3.43;;;4.60;99.90;;;;;;5050692;28;20208;-57
2021/01/14 06:27:32;;;;;;;5.83;3.60;;;4.60;99.90;;;;;;5051126;28;20312;-57
2021/01/14 06:30:02;;;;;;;6.23;3.57;;;4.60;99.90;;;;;;5050554;28;20263;-57
2021/01/14 06:32:28;;;;;;;4.60;3.47;;;4.70;99.90;;;;;;5051173;28;20212;-57
2021/01/14 06:34:54;;;;;;;4.37;3.27;;;4.70;99.90;;;;;;5050432;28;20215;-56
2021/01/14 06:37:23;;;;;;;3.93;3.37;;;4.70;99.90;;;;;;5050609;28;20209;-57
2021/01/14 06:39:51;;;;;;;5.60;3.53;;;4.70;99.90;;;;;;5050358;28;20221;-58
2021/01/14 06:42:23;;;;;;;3.90;3.50;;;4.70;99.90;;;;;;5051444;28;20555;-57
2021/01/14 06:44:55;;;;;;;6.10;4.77;;;4.80;99.90;;;;;;5054820;28;20205;-58
2021/01/14 06:47:33;;;;;;;5.73;4.23;;;4.80;99.90;;;;;;5055097;28;20254;-57
2021/01/14 06:50:23;;;;;;;4.67;4.20;;;4.90;99.90;;;;;;5054682;28;20232;-56
2021/01/14 06:53:01;;;;;;;5.67;4.13;;;4.80;99.90;;;;;;5055274;28;20212;-57
2021/01/14 06:55:30;;;;;;;4.83;3.80;;;4.80;99.90;;;;;;5054789;28;20235;-57
2021/01/14 06:58:07;;;;;;;6.50;4.40;;;4.80;99.90;;;;;;5054684;28;20234;-57
2021/01/14 07:00:38;;;;;;;6.50;4.07;;;4.90;99.90;;;;;;5054280;28;20248;-57
2021/01/14 07:03:23;;;;;;;6.70;5.03;;;5.00;99.90;;;;;;5054322;28;20751;-57
2021/01/14 07:06:08;;;;;;;6.27;4.50;;;5.00;99.90;;;;;;5054564;28;20217;-56
2021/01/14 07:08:37;;;;;;;5.70;4.90;;;5.00;99.90;;;;;;5054447;28;20787;-57
2021/01/14 07:11:07;;;;;;;6.87;4.73;;;5.00;99.90;;;;;;5054063;28;20217;-56
2021/01/14 07:13:35;;;;;;;5.80;4.20;;;5.00;99.90;;;;;;5053939;28;20669;-57
2021/01/14 07:16:03;;;;;;;4.73;4.23;;;5.10;99.90;;;;;;5054270;28;20213;-57
2021/01/14 07:18:30;;;;;;;4.77;4.27;;;5.00;99.90;;;;;;5054063;28;20205;-57
2021/01/14 07:21:02;;;;;;;7.60;5.13;;;5.00;99.90;;;;;;5053877;28;20229;-58
2021/01/14 07:23:30;;;;;;;5.27;4.57;;;5.00;99.90;;;;;;5054036;28;20255;-58
2021/01/14 07:25:59;;;;;;;6.70;5.53;;;5.00;99.90;;;;;;5054196;28;20292;-57
2021/01/14 07:28:25;;;;;;;7.67;5.60;;;5.00;99.90;;;;;;5053913;28;20213;-57
2021/01/14 07:30:51;;;;;;;7.50;5.00;;;5.00;99.90;;;;;;5053944;28;20228;-58
2021/01/14 07:33:27;;;;;;;6.90;4.57;;;5.00;99.90;;;;;;5053952;28;20217;-57
2021/01/14 07:35:55;;;;;;;7.77;5.27;;;4.90;99.90;;;;;;5054378;28;20292;-58
2021/01/14 07:38:21;;;;;;;12.20;6.60;;;4.90;99.90;;;;;;5054104;28;20480;-56
2021/01/14 07:40:53;;;;;;;13.23;8.63;;;4.80;99.90;;;;;;5053663;28;20240;-57
2021/01/14 07:43:31;;;;;;;9.17;5.97;;;4.90;99.90;;;;;;5053741;28;20297;-57
2021/01/14 07:46:13;;;;;;;5.97;5.13;;;4.90;99.90;;;;;;5053768;28;20205;-56
2021/01/14 07:48:40;;;;;;;8.53;4.73;;;4.90;99.90;;;;;;5053615;28;20301;-57
2021/01/14 07:51:06;;;;;;;6.10;5.40;;;4.80;99.90;;;;;;5053710;28;20217;-57
2021/01/14 07:53:32;;;;;;;7.90;4.90;;;4.80;99.90;;;;;;5053480;28;20263;-56
2021/01/14 07:56:22;;;;;;;6.07;5.47;;;4.80;99.90;;;;;;5053335;28;20251;-57
2021/01/14 07:58:52;;;;;;;8.90;6.20;;;4.80;99.90;;;;;;5053297;28;20267;-57
2021/01/14 08:01:18;;;;;;;8.60;6.30;;;4.80;99.90;;;;;;5053077;28;20241;-57
2021/01/14 08:03:45;;;;;;;7.87;5.33;;;4.90;99.90;;;;;;5053421;28;20232;-57
2021/01/14 08:06:25;;;;;;;7.80;5.70;;;4.90;99.90;;;;;;5053349;28;20267;-58
2021/01/14 08:09:02;;;;;;;12.60;6.90;;;4.90;99.90;;;;;;5053310;28;20209;-59
2021/01/14 08:11:30;;;;;;;7.60;5.90;;;4.80;99.90;;;;;;5053593;28;20232;-56
2021/01/14 08:14:20;;;;;;;8.30;5.40;;;4.80;99.90;;;;;;5053381;28;20214;-57
2021/01/14 08:16:48;;;;;;;9.00;5.37;;;4.80;99.90;;;;;;5053518;28;20206;-56
2021/01/14 08:19:23;;;;;;;8.33;6.00;;;4.80;99.90;;;;;;5052974;28;20716;-56
2021/01/14 08:22:05;;;;;;;8.07;6.43;;;4.70;99.90;;;;;;5052689;28;20237;-57
2021/01/14 08:24:44;;;;;;;11.63;6.40;;;4.70;99.90;;;;;;5052942;28;20212;-57
2021/01/14 08:27:12;;;;;;;9.13;6.43;;;4.80;99.90;;;;;;5052989;28;20209;-57
2021/01/14 08:29:47;;;;;;;9.67;5.70;;;4.90;99.90;;;;;;5052551;28;20197;-57
2021/01/14 08:32:47;;;;;;;8.03;6.07;;;4.80;99.90;;;;;;5052777;28;20244;-57
2021/01/14 08:35:24;;;;;;;15.17;7.10;;;4.70;99.90;;;;;;5052658;28;20214;-56
2021/01/14 08:37:52;;;;;;;15.70;10.50;;;4.80;99.90;;;;;;5052690;28;20209;-57
2021/01/14 08:40:25;;;;;;;9.57;6.70;;;4.90;99.90;;;;;;5052479;28;20237;-57
2021/01/14 08:43:01;;;;;;;8.27;6.80;;;5.00;99.90;;;;;;5052409;28;20617;-57
2021/01/14 08:45:29;;;;;;;10.90;8.80;;;5.00;99.90;;;;;;5052635;28;20209;-57
2021/01/14 08:48:01;;;;;;;11.87;9.83;;;5.10;99.90;;;;;;5052379;28;20209;-57
2021/01/14 08:50:39;;;;;;;14.23;12.50;;;5.10;99.90;;;;;;5052550;28;20504;-56
2021/01/14 08:53:07;;;;;;;13.83;11.23;;;5.10;99.90;;;;;;5052745;28;20378;-57
2021/01/14 08:55:34;;;;;;;14.43;9.07;;;5.10;99.90;;;;;;5052738;28;20201;-57
2021/01/14 08:58:03;;;;;;;10.67;7.67;;;5.10;99.90;;;;;;5052631;28;20209;-57
2021/01/14 09:00:31;;;;;;;10.40;7.20;;;5.20;99.90;;;;;;5052275;28;20229;-57
2021/01/14 09:02:58;;;;;;;7.63;6.70;;;5.30;99.90;;;;;;5051971;28;20208;-57
2021/01/14 09:05:24;;;;;;;8.50;7.00;;;5.30;99.90;;;;;;5051484;28;20228;-57
2021/01/14 09:08:05;;;;;;;9.13;7.23;;;5.40;99.90;;;;;;5052000;28;20584;-56
2021/01/14 09:10:46;;;;;;;7.83;6.53;;;5.40;99.90;;;;;;5051784;28;20727;-57
2021/01/14 09:13:14;;;;;;;6.63;5.93;;;5.50;99.90;;;;;;5051972;28;20205;-58
2021/01/14 09:15:42;;;;;;;10.10;6.67;;;5.60;99.90;;;;;;5052520;28;20213;-58
2021/01/14 09:18:08;;;;;;;8.37;6.63;;;5.40;99.90;;;;;;5052274;28;20696;-58
2021/01/14 09:20:35;;;;;;;10.20;7.50;;;5.20;99.90;;;;;;5067514;22;20247;-61
2021/01/14 09:23:17;;;;;;;9.77;7.33;;;5.30;99.90;;;;;;5051953;28;20201;-60
2021/01/14 09:25:44;;;;;;;7.93;6.60;;;5.40;99.90;;;;;;5051563;28;20273;-58
2021/01/14 09:28:10;;;;;;;8.00;7.00;;;5.40;99.90;;;;;;5051943;28;20212;-60
2021/01/14 09:30:36;;;;;;;9.57;7.30;;;5.40;99.90;;;;;;5051546;28;20253;-57
2021/01/14 09:33:04;;;;;;;9.33;7.20;;;5.40;99.90;;;;;;5051888;28;20259;-58
2021/01/14 09:35:30;;;;;;;13.63;8.93;;;5.40;99.90;;;;;;5051663;28;20212;-59
2021/01/14 09:37:56;;;;;;;8.63;7.57;;;5.50;99.90;;;;;;5051504;28;20205;-59
2021/01/14 09:40:23;;;;;;;10.07;6.80;;;5.60;99.90;;;;;;5051379;28;20469;-58
2021/01/14 09:42:50;;;;;;;11.20;7.23;;;5.70;99.90;;;;;;5051640;28;20648;-59
2021/01/14 09:45:17;;;;;;;8.73;6.87;;;5.80;99.90;;;;;;5051411;28;20661;-59
2021/01/14 09:47:48;;;;;;;8.87;7.10;;;5.90;99.90;;;;;;5051639;28;20232;-58
2021/01/14 09:50:16;;;;;;;10.17;7.37;;;6.00;99.90;;;;;;5051692;28;20225;-59
2021/01/14 09:52:42;;;;;;;8.73;6.70;;;6.00;99.90;;;;;;5051416;28;20300;-59
2021/01/14 09:55:12;;;;;;;11.20;6.83;;;6.10;99.90;;;;;;5050933;28;20205;-59
2021/01/14 09:57:45;;;;;;;10.23;6.93;;;6.00;99.90;;;;;;5050932;28;20210;-59
2021/01/14 10:00:17;;;;;;;11.17;6.47;;;6.00;99.90;;;;;;5051087;28;20232;-59
2021/01/14 10:02:47;;;;;;;10.10;6.93;;;6.10;99.90;;;;;;5051137;28;20292;-59
2021/01/14 10:05:16;;;;;;;9.17;7.33;;;6.10;99.90;;;;;;5051054;28;20232;-60
2021/01/14 10:07:46;;;;;;;9.73;6.47;;;6.20;99.90;;;;;;5051124;28;20213;-59
2021/01/14 10:10:12;;;;;;;13.70;8.67;;;6.20;99.90;;;;;;5050842;28;20247;-59
2021/01/14 10:12:38;;;;;;;9.73;6.80;;;6.10;99.90;;;;;;5051129;28;20208;-60
2021/01/14 10:15:12;;;;;;;12.17;6.97;;;6.00;99.90;;;;;;5050957;28;20628;-59
2021/01/14 10:17:40;;;;;;;7.57;5.80;;;6.10;99.90;;;;;;5050257;28;20212;-59
2021/01/14 10:20:08;;;;;;;8.40;6.17;;;6.00;99.90;;;;;;5050433;28;20643;-59
2021/01/14 10:22:45;;;;;;;9.43;7.00;;;5.90;99.90;;;;;;5050600;28;20497;-61
2021/01/14 10:25:12;;;;;;;9.63;6.27;;;6.00;99.90;;;;;;5051239;28;20213;-63
2021/01/14 10:27:38;;;;;;;10.40;6.50;;;6.10;99.90;;;;;;5050749;28;20708;-62
2021/01/14 10:30:19;;;;;;;8.73;6.23;;;6.10;99.90;;;;;;5051732;28;20673;-62
2021/01/14 10:32:46;;;;;;;7.13;5.30;;;6.10;99.90;;;;;;5051646;28;20484;-62
2021/01/14 10:35:26;;;;;;;8.93;6.00;;;6.00;99.90;;;;;;5050943;28;20205;-62
2021/01/14 10:38:07;;;;;;;8.57;5.53;;;5.90;99.90;;;;;;5051102;28;20210;-63
2021/01/14 10:40:40;;;;;;;8.57;5.23;;;6.00;99.90;;;;;;5050980;28;20645;-63
2021/01/14 10:43:07;;;;;;;8.13;5.07;;;5.90;99.90;;;;;;5050594;28;20216;-64
2021/01/14 10:45:35;;;;;;;7.43;5.60;;;5.90;99.90;;;;;;5050376;28;20209;-61
2021/01/14 10:48:12;;;;;;;12.20;5.90;;;5.80;99.90;;;;;;5050462;28;21320;-62
2021/01/14 10:50:45;;;;;;;8.97;5.43;;;5.70;99.90;;;;;;5050635;28;20236;-62
2021/01/14 10:53:12;;;;;;;7.73;5.93;;;5.80;99.90;;;;;;5051019;28;20304;-62
2021/01/14 10:55:41;;;;;;;10.13;6.33;;;5.80;99.90;;;;;;5050953;28;20212;-62
2021/01/14 10:58:08;;;;;;;9.43;6.20;;;5.80;99.90;;;;;;5050244;28;20206;-63
2021/01/14 11:00:36;;;;;;;9.57;5.70;;;5.80;99.90;;;;;;5050328;28;20312;-62
2021/01/14 11:03:03;;;;;;;7.90;5.70;;;5.90;99.90;;;;;;5050421;28;20206;-62
2021/01/14 11:05:40;;;;;;;6.00;5.23;;;6.00;99.90;;;;;;5050119;28;20201;-62
2021/01/14 11:08:12;;;;;;;9.73;6.20;;;6.10;99.90;;;;;;5049997;28;20247;-62
2021/01/14 11:10:39;;;;;;;9.13;5.37;;;6.00;99.90;;;;;;5049958;28;20226;-62
2021/01/14 11:13:07;;;;;;;8.47;5.50;;;6.10;99.90;;;;;;5050504;28;20206;-62
2021/01/14 11:15:33;;;;;;;14.57;6.40;;;6.30;99.90;;;;;;5050361;28;20209;-63
2021/01/14 11:18:00;;;;;;;8.63;5.33;;;6.50;99.90;;;;;;5050108;28;20240;-63
2021/01/14 11:20:27;;;;;;;11.47;5.47;;;6.70;99.90;;;;;;5050165;28;20367;-62
2021/01/14 11:22:53;;;;;;;10.57;5.97;;;6.90;99.90;;;;;;5050124;28;20206;-62
2021/01/14 11:25:19;;;;;;;7.30;5.57;;;7.10;99.90;;;;;;5049876;28;20217;-62
2021/01/14 11:27:46;;;;;;;10.83;5.27;;;7.20;99.90;;;;;;5050146;28;20255;-62
2021/01/14 11:30:14;;;;;;;8.23;5.33;;;7.10;99.90;;;;;;5053574;28;20202;-62
2021/01/14 11:32:40;;;;;;;8.37;5.30;;;7.20;99.90;;;;;;5053737;28;20255;-62
2021/01/14 11:35:07;;;;;;;7.97;5.23;;;7.10;99.90;;;;;;5053738;28;20213;-63
2021/01/14 11:37:33;;;;;;;10.37;6.20;;;7.10;99.90;;;;;;5053325;28;20700;-62
2021/01/14 11:39:59;;;;;;;6.43;5.47;;;7.00;99.90;;;;;;5053544;28;20221;-63
2021/01/14 11:42:27;;;;;;;6.77;5.63;;;6.90;99.90;;;;;;5053850;28;20588;-63
2021/01/14 11:44:54;;;;;;;7.03;5.17;;;6.70;99.90;;;;;;5052954;28;20693;-62
2021/01/14 11:47:20;;;;;;;11.03;5.73;;;6.60;99.90;;;;;;5052948;28;20232;-62
2021/01/14 11:49:47;;;;;;;7.80;5.43;;;6.40;99.90;;;;;;5053213;28;20206;-62
2021/01/14 11:52:15;;;;;;;7.43;5.20;;;6.30;99.90;;;;;;5053070;28;20782;-63
2021/01/14 11:54:41;;;;;;;9.13;5.77;;;6.30;99.90;;;;;;5053522;28;20220;-61
2021/01/14 11:57:08;;;;;;;11.30;6.23;;;6.40;99.90;;;;;;5054193;28;20255;-62
2021/01/14 11:59:34;;;;;;;10.03;5.87;;;6.40;99.90;;;;;;5054505;28;20578;-62
2021/01/14 12:02:01;;;;;;;8.50;5.00;;;6.50;99.90;;;;;;5053064;28;20233;-61
2021/01/14 12:04:28;;;;;;;7.80;5.33;;;6.50;99.90;;;;;;5053260;28;20205;-62
2021/01/14 12:06:54;;;;;;;7.80;5.80;;;6.50;99.90;;;;;;5052930;28;20217;-62
2021/01/14 12:09:20;;;;;;;11.67;6.03;;;6.50;99.90;;;;;;5053179;28;20214;-63
2021/01/14 12:11:47;;;;;;;9.67;5.30;;;6.60;99.90;;;;;;5053225;28;20229;-62
2021/01/14 12:14:13;;;;;;;10.30;5.73;;;6.60;99.90;;;;;;5053131;28;20217;-60
2021/01/14 12:16:39;;;;;;;9.27;5.77;;;6.70;99.90;;;;;;5052977;28;20590;-63
2021/01/14 12:19:06;;;;;;;10.33;5.90;;;6.70;99.90;;;;;;5052854;28;20201;-62
2021/01/14 12:21:32;;;;;;;11.13;6.40;;;6.70;99.90;;;;;;5052644;28;20635;-62
2021/01/14 12:23:59;;;;;;;9.67;5.03;;;6.60;99.90;;;;;;5053531;28;20582;-61
2021/01/14 12:26:25;;;;;;;11.67;6.17;;;6.60;99.90;;;;;;5053427;28;20213;-62
2021/01/14 12:28:51;;;;;;;22.00;13.10;;;6.50;99.90;;;;;;5052820;28;20217;-61
2021/01/14 12:31:17;;;;;;;12.47;7.00;;;6.50;99.90;;;;;;5052693;28;20221;-60
2021/01/14 12:33:43;;;;;;;14.13;7.00;;;6.50;99.90;;;;;;5052593;28;20208;-61
2021/01/14 12:36:11;;;;;;;8.67;5.60;;;6.50;99.90;;;;;;5052730;28;20213;-62
2021/01/14 12:38:37;;;;;;;16.23;9.77;;;6.50;99.90;;;;;;5052807;28;20210;-60
2021/01/14 12:41:03;;;;;;;13.07;6.40;;;6.50;99.90;;;;;;5051699;28;20697;-60
2021/01/14 12:43:29;;;;;;;8.33;5.80;;;6.50;99.90;;;;;;5052332;28;20211;-62
2021/01/14 12:45:55;;;;;;;6.80;4.63;;;6.50;99.90;;;;;;5052114;28;20205;-60
2021/01/14 12:48:21;;;;;;;12.50;5.40;;;6.60;99.90;;;;;;5052608;28;20213;-61
2021/01/14 12:50:48;;;;;;;12.13;7.00;;;6.60;99.90;;;;;;5051738;28;20229;-60
2021/01/14 12:53:15;;;;;;;9.20;5.87;;;6.60;99.90;;;;;;5052157;28;20279;-61
2021/01/14 12:55:41;;;;;;;11.10;7.07;;;6.60;99.90;;;;;;5052077;28;20275;-61
2021/01/14 12:58:08;;;;;;;11.07;5.27;;;6.60;99.90;;;;;;5052219;28;20212;-64
2021/01/14 13:00:34;;;;;;;9.73;6.20;;;6.60;99.90;;;;;;5052113;28;20759;-63
2021/01/14 13:03:00;;;;;;;10.87;5.70;;;6.50;99.90;;;;;;5052396;28;20233;-63
2021/01/14 13:05:26;;;;;;;10.10;6.33;;;6.50;99.90;;;;;;5051851;28;20213;-63